Time;durP1;ratioP1;P1;durP2;ratioP2;P2;SDS_P1;SDS_P2;PMS_P1;PMS_P2;Temp;Humidity;BMP_temperature;BMP_pressure;BME280_temperature;BME280_humidity;BME280_pressure;Samples;Min_cycle;Max_cycle;Signal;HPM_P1;HPM_P2
2021/09/15 00:02:14;;;;;;;9.52;5.75;;;;;;;18.84;80.71;100910.16;5013560;28;20057;-79
2021/09/15 00:04:39;;;;;;;11.30;5.72;;;;;;;18.83;80.85;100911.16;5000348;28;20033;-81
2021/09/15 00:07:04;;;;;;;8.70;5.57;;;;;;;18.80;81.12;100904.53;5006008;28;20482;-77
2021/09/15 00:09:30;;;;;;;7.32;5.65;;;;;;;18.78;81.32;100903.06;5028580;28;20044;-81
2021/09/15 00:11:56;;;;;;;9.05;6.28;;;;;;;18.79;81.47;100905.50;5014214;28;20125;-77
2021/09/15 00:14:23;;;;;;;11.60;6.68;;;;;;;18.79;81.59;100902.06;5039411;28;20414;-78
2021/09/15 00:16:48;;;;;;;12.68;7.20;;;;;;;18.83;81.50;100903.28;5010467;28;20037;-79
2021/09/15 00:19:14;;;;;;;12.60;7.15;;;;;;;18.88;81.36;100903.47;5016568;28;20114;-78
2021/09/15 00:21:39;;;;;;;9.77;6.90;;;;;;;18.85;81.36;100896.84;5033675;28;20033;-79
2021/09/15 00:24:05;;;;;;;10.18;7.18;;;;;;;18.88;81.53;100894.81;5018075;28;20041;-79
2021/09/15 00:26:31;;;;;;;14.00;8.23;;;;;;;18.87;81.56;100896.59;5004906;28;20491;-78
2021/09/15 00:28:56;;;;;;;14.45;8.65;;;;;;;18.95;81.33;100895.56;5025792;28;20091;-79
2021/09/15 00:31:22;;;;;;;10.35;7.68;;;;;;;18.89;81.73;100894.56;5025610;28;20431;-77
2021/09/15 00:33:48;;;;;;;11.32;7.40;;;;;;;18.86;81.77;100895.81;5014552;28;20120;-79
2021/09/15 00:36:14;;;;;;;14.77;7.72;;;;;;;18.85;81.97;100888.94;5002887;28;20037;-79
2021/09/15 00:38:39;;;;;;;11.60;7.85;;;;;;;18.85;81.93;100885.50;5025161;28;20033;-79
2021/09/15 00:41:05;;;;;;;12.65;6.97;;;;;;;18.84;82.15;100892.56;4999673;28;20059;-79
2021/09/15 00:43:30;;;;;;;13.68;7.53;;;;;;;18.83;82.48;100885.69;5001287;28;20028;-79
2021/09/15 00:45:57;;;;;;;15.15;8.38;;;;;;;18.85;82.60;100888.94;5026473;28;20479;-77
2021/09/15 00:48:24;;;;;;;11.65;7.63;;;;;;;18.85;82.68;100886.31;4997487;28;20034;-81
2021/09/15 00:50:50;;;;;;;12.57;8.05;;;;;;;18.84;82.75;100884.69;5018999;28;20035;-78
2021/09/15 00:53:18;;;;;;;10.52;6.75;;;;;;;18.85;82.85;100886.31;5014357;28;20033;-79
2021/09/15 00:55:44;;;;;;;11.93;8.27;;;;;;;18.84;82.73;100879.44;5015369;28;20033;-80
2021/09/15 00:58:11;;;;;;;14.65;7.22;;;;;;;18.85;82.92;100875.81;5004979;28;20036;-78
2021/09/15 01:00:37;;;;;;;16.23;8.15;;;;;;;18.84;83.28;100882.06;5012981;28;20044;-78
2021/09/15 01:03:03;;;;;;;10.77;7.97;;;;;;;18.85;83.29;100875.00;5004142;28;20030;-78
2021/09/15 01:05:28;;;;;;;14.95;8.65;;;;;;;18.86;83.45;100866.09;4999454;28;20149;-77
2021/09/15 01:07:59;;;;;;;11.75;8.43;;;;;;;18.83;83.31;100864.69;4999750;28;20068;-79
2021/09/15 01:10:25;;;;;;;15.75;9.25;;;;;;;18.83;83.47;100875.19;5000578;28;20037;-79
2021/09/15 01:13:13;;;;;;;12.32;8.05;;;;;;;18.82;83.73;100872.81;5014098;28;20135;-80
2021/09/15 01:15:39;;;;;;;10.68;8.13;;;;;;;18.80;84.32;100875.63;5029345;28;20487;-82
2021/09/15 01:18:32;;;;;;;11.20;7.70;;;;;;;18.79;84.56;100866.09;4999994;28;20025;-78
2021/09/15 01:21:16;;;;;;;11.02;7.50;;;;;;;18.80;84.28;100861.66;5021097;28;20451;-78
2021/09/15 01:24:02;;;;;;;12.13;8.77;;;;;;;18.80;84.57;100862.50;5006804;28;20044;-81
2021/09/15 01:26:47;;;;;;;15.82;10.00;;;;;;;18.80;84.65;100859.88;5014937;28;20060;-80
2021/09/15 01:29:33;;;;;;;20.20;10.70;;;;;;;18.75;84.74;100850.97;5018880;28;20457;-81
2021/09/15 01:32:12;;;;;;;13.20;9.05;;;;;;;18.77;84.82;100852.38;5004771;28;20044;-80
2021/09/15 01:34:44;;;;;;;15.35;11.15;;;;;;;18.80;84.69;100840.66;5006578;28;20043;-82
2021/09/15 01:37:15;;;;;;;17.58;10.55;;;;;;;18.77;85.10;100847.09;5006389;28;20034;-80
2021/09/15 01:39:55;;;;;;;14.60;10.43;;;;;;;18.74;85.17;100839.66;5025877;28;20562;-81
2021/09/15 01:42:21;;;;;;;15.50;10.80;;;;;;;18.74;85.39;100831.78;5012453;28;20032;-81
2021/09/15 01:44:48;;;;;;;15.23;10.43;;;;;;;18.73;85.56;100827.53;5028419;28;20033;-80
2021/09/15 01:47:17;;;;;;;15.02;10.38;;;;;;;18.72;85.65;100822.50;5021010;28;20034;-80
2021/09/15 01:49:44;;;;;;;19.63;10.48;;;;;;;18.72;85.40;100825.91;5009916;28;20029;-81
2021/09/15 01:52:12;;;;;;;21.55;12.65;;;;;;;18.71;85.28;100816.44;5015825;28;20364;-79
2021/09/15 01:54:38;;;;;;;17.92;11.32;;;;;;;18.71;85.19;100813.00;4998434;28;20029;-81
2021/09/15 01:57:04;;;;;;;14.15;9.77;;;;;;;18.70;85.34;100809.56;5012625;28;20034;-81
2021/09/15 01:59:48;;;;;;;17.90;10.00;;;;;;;18.73;85.33;100810.97;5014389;28;20105;-81
2021/09/15 02:02:33;;;;;;;14.27;10.05;;;;;;;18.68;85.77;100807.16;5016420;28;20083;-81
2021/09/15 02:05:05;;;;;;;13.70;10.02;;;;;;;18.64;86.08;100800.69;5009366;28;20538;-80
2021/09/15 02:07:41;;;;;;;14.05;10.05;;;;;;;18.64;86.13;100800.69;5002771;28;20064;-80
2021/09/15 02:10:26;;;;;;;15.82;10.32;;;;;;;18.61;86.23;100793.25;5018127;28;20052;-81
2021/09/15 02:12:52;;;;;;;15.23;10.27;;;;;;;18.60;86.54;100796.09;5004312;28;20107;-81
2021/09/15 02:15:18;;;;;;;15.95;10.63;;;;;;;18.60;86.48;100802.13;5020725;28;20492;-80
2021/09/15 02:17:47;;;;;;;14.02;9.25;;;;;;;18.56;86.85;100794.91;5005679;28;20030;-80
2021/09/15 02:20:29;;;;;;;13.43;9.73;;;;;;;18.55;87.04;100798.53;5014759;28;20053;-80
2021/09/15 02:23:05;;;;;;;14.45;9.82;;;;;;;18.56;86.75;100789.66;4999107;28;20035;-81
2021/09/15 02:25:39;;;;;;;13.15;10.05;;;;;;;18.57;86.79;100792.06;5021232;28;20079;-81
2021/09/15 02:28:25;;;;;;;15.32;9.90;;;;;;;18.54;86.96;100786.44;5005806;28;20728;-80
2021/09/15 02:31:13;;;;;;;18.70;10.27;;;;;;;18.53;86.88;100792.69;4995748;28;20042;-81
2021/09/15 02:34:02;;;;;;;12.75;9.80;;;;;;;18.52;86.84;100793.72;5009126;28;20529;-80
2021/09/15 02:36:35;;;;;;;13.80;10.43;;;;;;;18.53;86.97;100795.31;5006151;28;20041;-80
2021/09/15 02:39:18;;;;;;;18.20;10.52;;;;;;;18.49;86.99;100795.72;4994051;28;20541;-80
2021/09/15 02:41:55;;;;;;;14.43;10.30;;;;;;;18.49;87.26;100798.34;5014045;28;20033;-80
2021/09/15 02:44:29;;;;;;;12.30;9.00;;;;;;;18.50;87.27;100799.16;5005318;28;20033;-80
2021/09/15 02:47:15;;;;;;;12.63;10.00;;;;;;;18.46;87.69;100800.59;5013874;28;20495;-80
2021/09/15 02:49:59;;;;;;;13.65;9.32;;;;;;;18.44;87.59;100795.56;5026324;28;20056;-80
2021/09/15 02:52:43;;;;;;;19.85;12.88;;;;;;;18.52;87.32;100793.72;5020964;28;20122;-81
2021/09/15 02:55:27;;;;;;;18.17;12.07;;;;;;;18.61;87.21;100785.38;5022721;28;20091;-83
2021/09/15 02:58:03;;;;;;;20.48;12.48;;;;;;;18.53;87.38;100780.34;5022390;28;20056;-82
2021/09/15 03:00:42;;;;;;;19.48;12.95;;;;;;;18.61;86.74;100777.50;4999809;28;20465;-82
2021/09/15 03:03:16;;;;;;;15.27;11.88;;;;;;;18.53;87.29;100779.56;5020240;28;20033;-81
2021/09/15 03:05:55;;;;;;;16.70;13.40;;;;;;;18.51;86.90;100784.22;5005527;28;20030;-81
2021/09/15 03:08:38;;;;;;;19.70;12.52;;;;;;;18.47;87.74;100784.63;5003110;28;20041;-81
2021/09/15 03:11:04;;;;;;;17.42;12.10;;;;;;;18.46;87.85;100777.78;5020060;28;20075;-82
2021/09/15 03:13:30;;;;;;;16.85;12.13;;;;;;;18.45;87.83;100781.41;5009656;28;20045;-81
2021/09/15 03:15:56;;;;;;;15.98;11.50;;;;;;;18.44;88.07;100776.34;5004213;28;20038;-81
2021/09/15 03:18:21;;;;;;;17.00;11.13;;;;;;;18.43;87.96;100777.38;5021626;28;20500;-81
2021/09/15 03:20:47;;;;;;;21.83;12.07;;;;;;;18.43;87.76;100777.38;5003778;28;20100;-81
2021/09/15 03:23:13;;;;;;;17.67;12.10;;;;;;;18.42;87.83;100781.84;4998669;28;20052;-81
2021/09/15 03:25:39;;;;;;;17.10;10.95;;;;;;;18.44;87.96;100792.09;5005006;28;20037;-82
2021/09/15 03:28:05;;;;;;;19.73;11.65;;;;;;;18.42;88.00;100775.75;5000838;28;20415;-81
2021/09/15 03:30:30;;;;;;;20.95;12.23;;;;;;;18.42;88.05;100775.75;5021889;28;20319;-81
2021/09/15 03:32:57;;;;;;;18.17;13.15;;;;;;;18.45;87.71;100780.59;5014479;28;20026;-81
2021/09/15 03:35:23;;;;;;;24.13;13.85;;;;;;;18.46;87.69;100783.03;4998345;28;20044;-80
2021/09/15 03:37:48;;;;;;;17.27;12.15;;;;;;;18.44;87.94;100771.09;5008429;28;20037;-81
2021/09/15 03:40:14;;;;;;;15.90;11.52;;;;;;;18.41;87.78;100756.59;5004546;28;20025;-81
2021/09/15 03:42:40;;;;;;;18.15;12.20;;;;;;;18.40;88.03;100751.53;5013542;28;20089;-80
2021/09/15 03:45:06;;;;;;;17.25;12.68;;;;;;;18.39;87.97;100750.75;5006689;28;20132;-80
2021/09/15 03:47:32;;;;;;;16.70;12.82;;;;;;;18.39;88.03;100753.38;5010263;28;20034;-81
2021/09/15 03:49:58;;;;;;;22.42;13.90;;;;;;;18.53;87.64;100742.78;4998008;28;20245;-84
2021/09/15 03:52:24;;;;;;;20.13;12.32;;;;;;;18.62;87.03;100744.16;5009944;28;20486;-81
2021/09/15 03:54:49;;;;;;;20.98;13.63;;;;;;;18.54;87.29;100744.41;5032916;28;20021;-80
2021/09/15 03:57:16;;;;;;;21.17;13.77;;;;;;;18.47;87.75;100741.81;5003235;28;20156;-80
2021/09/15 03:59:41;;;;;;;16.52;11.00;;;;;;;18.43;87.90;100748.50;5009105;28;20032;-79
2021/09/15 04:02:07;;;;;;;19.25;13.63;;;;;;;18.41;88.14;100747.91;5021327;28;20390;-80
2021/09/15 04:04:33;;;;;;;22.48;14.80;;;;;;;18.39;88.37;100747.31;5004417;28;20029;-80
2021/09/15 04:06:59;;;;;;;19.80;14.02;;;;;;;18.40;88.42;100746.28;4997328;28;20056;-79
2021/09/15 04:09:25;;;;;;;19.40;12.60;;;;;;;18.35;88.70;100744.28;5006618;28;20479;-79
2021/09/15 04:11:51;;;;;;;19.33;13.15;;;;;;;18.37;88.92;100744.09;5008611;28;20045;-78
2021/09/15 04:14:16;;;;;;;15.85;12.38;;;;;;;18.36;88.83;100739.84;4996247;28;20334;-79
2021/09/15 04:16:42;;;;;;;20.65;14.38;;;;;;;18.46;88.89;100738.38;5012222;28;20082;-80
2021/09/15 04:19:07;;;;;;;21.83;14.90;;;;;;;18.45;88.55;100741.22;5014900;28;20083;-79
2021/09/15 04:21:33;;;;;;;22.00;14.68;;;;;;;18.45;89.02;100749.09;5020513;28;20482;-78
2021/09/15 04:31:59;;;;;;;21.35;13.63;;;;;;;18.46;89.27;100754.16;5014245;28;20060;-79
2021/09/15 04:34:24;;;;;;;22.23;12.63;;;;;;;18.42;89.55;100746.88;5011903;28;20057;-78
2021/09/15 04:36:54;;;;;;;22.00;13.15;;;;;;;18.39;89.74;100750.75;5018144;28;20403;-78
2021/09/15 04:39:22;;;;;;;18.70;13.20;;;;;;;18.37;90.22;100731.78;5026453;28;20041;-79
2021/09/15 04:41:48;;;;;;;21.27;13.35;;;;;;;18.53;90.25;100738.34;5003677;28;20254;-79
2021/09/15 04:44:15;;;;;;;21.23;13.65;;;;;;;18.46;90.78;100740.22;5016898;28;20446;-77
2021/09/15 04:46:40;;;;;;;20.98;14.93;;;;;;;18.43;91.00;100717.81;5016381;28;20064;-77
2021/09/15 04:49:06;;;;;;;26.77;15.38;;;;;;;18.45;91.24;100717.59;5011804;28;20029;-78
2021/09/15 04:51:35;;;;;;;24.92;14.10;;;;;;;18.36;91.33;100717.03;4996694;28;20117;-77
2021/09/15 04:54:01;;;;;;;24.50;15.35;;;;;;;18.34;91.66;100716.44;5022333;28;20061;-77
2021/09/15 04:56:27;;;;;;;25.33;14.60;;;;;;;18.34;91.79;100715.63;5010725;28;20029;-76
2021/09/15 04:58:53;;;;;;;23.00;13.80;;;;;;;18.32;91.77;100713.22;5002760;28;20063;-77
2021/09/15 05:01:18;;;;;;;20.90;14.82;;;;;;;18.33;92.01;100724.50;5010697;28;20052;-76
2021/09/15 05:03:44;;;;;;;25.00;14.25;;;;;;;18.32;92.08;100739.47;5003200;28;20446;-78
2021/09/15 05:06:12;;;;;;;19.60;13.70;;;;;;;18.29;92.48;100724.94;5005375;28;20072;-79
2021/09/15 05:08:38;;;;;;;20.63;14.07;;;;;;;18.25;92.48;100721.13;5001419;28;20048;-79
2021/09/15 05:11:04;;;;;;;24.52;15.75;;;;;;;18.33;92.33;100721.88;5011380;28;20029;-77
2021/09/15 05:13:29;;;;;;;21.23;14.35;;;;;;;18.27;92.85;100734.84;5006310;28;20034;-78
2021/09/15 05:15:55;;;;;;;19.83;14.07;;;;;;;18.25;92.86;100730.78;5004410;28;20037;-78
2021/09/15 05:18:21;;;;;;;22.73;14.02;;;;;;;18.23;93.01;100723.16;5015546;28;20144;-78
2021/09/15 05:20:47;;;;;;;22.02;14.45;;;;;;;18.24;93.17;100731.81;5012726;28;20550;-77
2021/09/15 05:23:13;;;;;;;21.85;14.75;;;;;;;18.27;93.21;100731.41;5015221;28;20029;-77
2021/09/15 05:25:39;;;;;;;32.20;15.10;;;;;;;18.26;93.21;100729.78;5020117;28;20033;-76
2021/09/15 05:28:06;;;;;;;21.95;13.98;;;;;;;18.28;93.37;100733.03;5029528;28;20034;-76
2021/09/15 05:30:35;;;;;;;22.50;13.88;;;;;;;18.33;93.33;100740.25;5007471;28;20505;-76
2021/09/15 05:33:02;;;;;;;22.83;15.35;;;;;;;18.31;93.38;100745.72;5005873;28;20057;-76
2021/09/15 05:35:28;;;;;;;20.83;13.77;;;;;;;18.33;93.61;100745.50;5017434;28;20112;-76
2021/09/15 05:38:00;;;;;;;20.20;13.70;;;;;;;18.33;93.53;100742.88;5010737;28;20068;-76
2021/09/15 05:40:25;;;;;;;24.40;14.60;;;;;;;18.32;93.58;100744.72;5002591;28;20041;-75
2021/09/15 05:42:51;;;;;;;22.58;14.52;;;;;;;18.32;93.57;100739.47;5003834;28;20039;-76
2021/09/15 05:45:18;;;;;;;19.85;13.75;;;;;;;18.34;93.24;100736.63;5022190;28;20030;-77
2021/09/15 05:47:45;;;;;;;19.58;12.98;;;;;;;18.36;93.19;100734.59;5030276;28;20065;-76
2021/09/15 05:50:11;;;;;;;20.67;14.88;;;;;;;18.39;92.92;100736.81;5020367;28;20099;-76
2021/09/15 05:52:42;;;;;;;23.13;14.95;;;;;;;18.39;92.99;100750.75;5021498;28;20367;-77
2021/09/15 05:55:08;;;;;;;27.92;18.42;;;;;;;18.44;92.77;100747.47;5014862;28;20084;-76
2021/09/15 05:57:34;;;;;;;25.13;16.00;;;;;;;18.37;92.77;100760.63;5002501;28;20026;-76
2021/09/15 06:00:02;;;;;;;22.55;15.27;;;;;;;18.32;92.77;100757.03;5030762;28;20022;-76
2021/09/15 06:02:28;;;;;;;19.15;13.90;;;;;;;18.30;93.26;100749.34;5012601;28;20029;-77
2021/09/15 06:04:56;;;;;;;26.08;15.35;;;;;;;18.34;93.19;100747.13;5021284;28;20541;-76
2021/09/15 06:07:25;;;;;;;23.08;15.35;;;;;;;18.31;93.22;100745.72;5011238;28;20505;-77
2021/09/15 06:09:51;;;;;;;19.45;14.80;;;;;;;18.32;93.13;100746.53;5021693;28;20083;-76
2021/09/15 06:12:17;;;;;;;22.17;13.95;;;;;;;18.31;93.02;100748.34;5019897;28;20415;-76
2021/09/15 06:14:42;;;;;;;19.83;13.80;;;;;;;18.33;93.10;100748.13;5010549;28;20041;-76
2021/09/15 06:17:08;;;;;;;21.40;14.63;;;;;;;18.34;92.84;100740.06;5004578;28;20041;-77
2021/09/15 06:19:33;;;;;;;18.35;12.48;;;;;;;18.36;92.55;100745.09;5013984;28;20068;-76
2021/09/15 06:22:34;;;;;;;18.88;12.98;;;;;;;18.37;92.18;100737.03;5018813;28;20052;-76
2021/09/15 06:25:17;;;;;;;17.90;12.68;;;;;;;18.40;91.40;100738.41;4993505;28;20037;-76
2021/09/15 06:27:43;;;;;;;16.38;11.95;;;;;;;18.43;91.00;100735.38;4997210;28;20402;-76
2021/09/15 06:30:09;;;;;;;18.65;13.57;;;;;;;18.46;90.91;100734.97;5022222;28;20044;-77
2021/09/15 06:32:35;;;;;;;23.23;14.50;;;;;;;18.47;90.95;100737.34;5014346;28;20069;-77
2021/09/15 06:35:01;;;;;;;22.08;14.73;;;;;;;18.47;91.50;100739.97;5032207;28;20692;-77
2021/09/15 06:37:27;;;;;;;19.45;14.02;;;;;;;18.46;91.84;100737.59;5020870;28;20073;-76
2021/09/15 06:39:52;;;;;;;18.42;13.35;;;;;;;18.45;91.97;100738.59;5015444;28;20132;-76
2021/09/15 06:42:18;;;;;;;20.27;14.20;;;;;;;18.47;92.26;100733.94;5014051;28;20102;-76
2021/09/15 06:44:44;;;;;;;22.83;14.00;;;;;;;18.47;92.70;100732.09;5017160;28;20037;-76
2021/09/15 06:47:10;;;;;;;25.75;14.43;;;;;;;18.47;92.64;100741.81;5021545;28;20495;-77
2021/09/15 06:49:35;;;;;;;21.05;13.10;;;;;;;18.45;92.66;100739.38;5017505;28;20072;-77
2021/09/15 06:52:01;;;;;;;20.48;13.20;;;;;;;18.45;92.50;100733.34;5013531;28;20033;-75
2021/09/15 06:54:29;;;;;;;18.77;12.40;;;;;;;18.47;92.62;100737.34;5022315;28;20034;-77
2021/09/15 06:56:56;;;;;;;19.88;14.00;;;;;;;18.47;92.50;100736.56;5013537;28;20056;-76
2021/09/15 06:59:21;;;;;;;20.92;15.00;;;;;;;18.46;92.56;100740.22;5031179;28;20040;-76
2021/09/15 07:01:47;;;;;;;22.08;15.00;;;;;;;18.47;92.34;100733.94;5024062;28;20045;-77
2021/09/15 07:04:12;;;;;;;24.30;12.73;;;;;;;18.47;92.32;100739.19;5028356;28;20037;-77
2021/09/15 07:06:38;;;;;;;23.73;15.02;;;;;;;18.48;92.26;100735.56;5031539;28;20083;-77
2021/09/15 07:09:03;;;;;;;19.05;12.88;;;;;;;18.49;92.29;100745.03;5013590;28;20083;-77
2021/09/15 07:11:29;;;;;;;23.23;14.10;;;;;;;18.50;92.42;100741.41;5021264;28;20041;-77
2021/09/15 07:13:54;;;;;;;24.20;13.77;;;;;;;18.49;92.41;100743.22;5014254;28;20278;-77
2021/09/15 07:16:20;;;;;;;18.75;13.85;;;;;;;18.51;92.58;100743.00;5015459;28;20034;-77
2021/09/15 07:18:45;;;;;;;17.52;12.35;;;;;;;18.50;92.42;100741.41;5020932;28;20486;-78
2021/09/15 07:21:13;;;;;;;20.90;12.98;;;;;;;18.52;92.62;100739.38;4996442;28;20091;-76
2021/09/15 07:23:38;;;;;;;19.83;14.27;;;;;;;18.54;92.53;100744.41;5012836;28;20065;-76
2021/09/15 07:26:04;;;;;;;25.23;13.55;;;;;;;18.55;92.77;100740.75;5012633;28;20037;-77
2021/09/15 07:28:29;;;;;;;20.98;13.45;;;;;;;18.56;92.85;100742.38;5030331;28;20068;-77
2021/09/15 07:30:55;;;;;;;20.08;13.02;;;;;;;18.56;92.78;100742.38;5030310;28;20038;-76
2021/09/15 07:33:20;;;;;;;24.60;14.43;;;;;;;18.56;92.77;100737.94;5030301;28;20030;-77
2021/09/15 07:35:46;;;;;;;23.98;13.88;;;;;;;18.57;92.96;100749.22;5030329;28;20029;-77
2021/09/15 07:38:11;;;;;;;23.23;14.13;;;;;;;18.58;92.98;100750.84;5029941;28;20033;-76
2021/09/15 07:40:37;;;;;;;19.33;14.10;;;;;;;18.58;93.13;100753.47;5030542;28;20240;-77
2021/09/15 07:43:02;;;;;;;20.90;14.15;;;;;;;18.59;93.33;100742.78;5014254;28;20033;-77
2021/09/15 07:45:28;;;;;;;21.52;13.77;;;;;;;18.60;93.48;100740.94;5002898;28;20041;-77
2021/09/15 07:47:54;;;;;;;21.42;14.85;;;;;;;18.60;93.44;100746.19;5029460;28;20032;-76
2021/09/15 07:50:20;;;;;;;25.17;15.77;;;;;;;18.68;93.26;100754.66;5030186;28;20382;-76
2021/09/15 07:52:45;;;;;;;25.85;15.98;;;;;;;18.78;92.64;100748.94;5012223;28;20037;-77
2021/09/15 07:55:11;;;;;;;24.67;15.40;;;;;;;18.71;92.89;100750.78;5029817;28;20040;-78
2021/09/15 07:57:42;;;;;;;27.33;16.02;;;;;;;18.79;93.05;100753.16;4995235;28;20037;-76
2021/09/15 08:00:07;;;;;;;27.38;15.35;;;;;;;18.70;93.16;100751.78;5036627;28;20055;-77
2021/09/15 08:02:38;;;;;;;29.23;15.57;;;;;;;18.68;93.45;100751.19;5039970;28;20087;-77
2021/09/15 08:05:04;;;;;;;24.52;14.95;;;;;;;18.70;93.59;100757.03;5017848;28;20118;-77
2021/09/15 08:07:29;;;;;;;18.85;13.38;;;;;;;18.70;93.70;100761.50;5022771;28;20037;-76
2021/09/15 08:09:55;;;;;;;19.35;14.07;;;;;;;18.72;93.77;100759.47;5019836;28;20036;-77
2021/09/15 08:12:20;;;;;;;25.48;14.35;;;;;;;18.71;93.89;100756.03;5006108;28;20030;-77
2021/09/15 08:14:46;;;;;;;18.85;12.93;;;;;;;18.73;93.78;100756.63;5014388;28;20038;-77
2021/09/15 08:17:11;;;;;;;23.08;13.45;;;;;;;18.77;94.00;100749.13;5034548;28;20038;-77
2021/09/15 08:19:37;;;;;;;19.85;12.82;;;;;;;18.79;93.83;100753.16;5000563;28;20025;-76
2021/09/15 08:22:02;;;;;;;27.67;14.48;;;;;;;18.89;93.75;100751.91;5029609;28;20108;-77
2021/09/15 08:24:28;;;;;;;19.58;13.00;;;;;;;18.86;93.82;100755.78;5029787;28;20048;-78
2021/09/15 08:26:54;;;;;;;19.25;12.95;;;;;;;18.89;93.69;100759.78;5011125;28;20033;-76
2021/09/15 08:29:19;;;;;;;18.70;13.02;;;;;;;18.89;93.65;100763.22;5011993;28;20040;-77
2021/09/15 08:31:45;;;;;;;22.48;12.55;;;;;;;18.87;93.64;100757.38;5030536;28;20033;-77
2021/09/15 08:34:10;;;;;;;22.88;12.35;;;;;;;18.87;93.56;100765.25;5010725;28;20438;-78
2021/09/15 08:36:35;;;;;;;17.98;12.82;;;;;;;19.03;93.39;100763.97;5011257;28;20052;-77
2021/09/15 08:39:02;;;;;;;27.83;14.40;;;;;;;19.06;93.53;100769.59;5008902;28;20029;-76
2021/09/15 08:41:27;;;;;;;21.30;12.75;;;;;;;18.99;93.72;100770.66;5014929;28;20025;-76
2021/09/15 08:43:53;;;;;;;21.30;12.52;;;;;;;19.05;93.51;100772.44;4993726;28;20115;-77
2021/09/15 08:46:20;;;;;;;21.13;14.45;;;;;;;19.00;93.67;100777.50;5034543;28;20140;-76
2021/09/15 08:48:47;;;;;;;23.13;12.93;;;;;;;19.04;93.62;100778.69;5035390;28;20021;-77
2021/09/15 08:51:16;;;;;;;25.73;13.93;;;;;;;19.04;93.54;100783.94;4997161;28;20025;-76
2021/09/15 08:53:44;;;;;;;23.23;13.45;;;;;;;19.05;93.75;100783.72;5029274;28;20037;-78
2021/09/15 08:56:11;;;;;;;21.73;14.68;;;;;;;18.99;93.85;100779.34;5011667;28;20668;-76
2021/09/15 08:58:36;;;;;;;21.80;14.43;;;;;;;18.96;94.21;100786.84;4991260;28;20449;-75
2021/09/15 09:01:20;;;;;;;22.98;16.20;;;;;;;18.90;94.38;100788.47;5011275;28;20066;-76
2021/09/15 09:03:52;;;;;;;22.30;14.90;;;;;;;18.97;94.31;100780.56;5008750;28;20038;-77
2021/09/15 09:06:21;;;;;;;22.13;14.20;;;;;;;19.01;94.52;100781.75;4996586;28;20124;-75
2021/09/15 09:08:52;;;;;;;21.23;12.25;;;;;;;19.01;94.63;100774.66;5011258;28;20029;-75
2021/09/15 09:11:21;;;;;;;19.60;13.43;;;;;;;19.05;94.82;100773.22;5028373;28;20152;-75
2021/09/15 09:13:56;;;;;;;23.70;13.07;;;;;;;19.19;94.50;100781.00;5030780;28;20033;-76
2021/09/15 09:16:46;;;;;;;16.58;13.05;;;;;;;19.26;94.28;100777.31;5010792;28;20037;-75
2021/09/15 09:19:18;;;;;;;18.10;12.35;;;;;;;19.34;94.31;100772.81;5010646;28;20445;-76
2021/09/15 09:21:52;;;;;;;17.25;12.10;;;;;;;19.41;94.50;100771.75;5029407;28;20029;-76
2021/09/15 09:24:20;;;;;;;16.80;11.82;;;;;;;19.51;94.37;100771.25;5032914;28;20052;-76
2021/09/15 09:26:59;;;;;;;17.33;12.60;;;;;;;19.61;94.41;100768.94;5030580;28;20124;-76
2021/09/15 09:29:46;;;;;;;14.43;10.48;;;;;;;19.75;94.40;100763.59;5016178;28;20025;-76
2021/09/15 09:32:14;;;;;;;14.10;10.80;;;;;;;19.96;93.77;100767.63;5010628;28;20041;-76
2021/09/15 09:34:41;;;;;;;15.80;9.55;;;;;;;20.05;92.72;100766.31;5005908;28;20124;-77
2021/09/15 09:37:16;;;;;;;11.85;9.35;;;;;;;20.23;92.40;100768.16;5009798;28;20034;-76
2021/09/15 09:39:45;;;;;;;10.68;8.35;;;;;;;20.16;92.06;100772.69;5010411;28;20056;-77
2021/09/15 09:42:23;;;;;;;11.85;8.88;;;;;;;20.19;91.80;100775.69;5013218;28;20483;-77
2021/09/15 09:45:12;;;;;;;10.52;7.85;;;;;;;20.12;92.05;100787.31;5008492;28;20098;-77
2021/09/15 09:47:39;;;;;;;12.43;7.47;;;;;;;20.09;91.75;100788.53;5014760;28;20044;-77
2021/09/15 09:50:18;;;;;;;11.30;8.27;;;;;;;19.99;92.01;100789.03;5021883;28;20036;-76
2021/09/15 09:53:00;;;;;;;12.40;8.38;;;;;;;20.00;91.51;100781.94;5018180;28;20531;-75
2021/09/15 09:55:45;;;;;;;11.70;9.02;;;;;;;19.89;91.35;100785.31;5030741;28;20068;-77
2021/09/15 09:58:12;;;;;;;12.40;8.85;;;;;;;19.92;91.16;100783.03;5003928;28;20091;-78
2021/09/15 10:00:38;;;;;;;17.63;10.50;;;;;;;19.90;90.67;100789.56;5010578;28;20072;-78
2021/09/15 10:03:04;;;;;;;12.30;9.05;;;;;;;19.89;91.01;100791.38;4994180;28;20033;-78
2021/09/15 10:05:29;;;;;;;11.93;8.85;;;;;;;19.83;91.73;100792.25;4998633;28;20608;-79
2021/09/15 10:07:55;;;;;;;15.75;9.65;;;;;;;19.81;91.85;100799.53;4993566;28;20033;-77
2021/09/15 10:10:22;;;;;;;12.40;9.75;;;;;;;19.90;91.21;100794.81;5011612;28;20041;-76
2021/09/15 10:12:54;;;;;;;14.02;10.57;;;;;;;19.86;91.50;100791.81;5001716;28;20036;-77
2021/09/15 10:15:19;;;;;;;17.27;11.20;;;;;;;19.90;91.67;100786.94;5030733;28;20041;-77
2021/09/15 10:17:53;;;;;;;14.98;10.50;;;;;;;20.01;91.79;100797.53;5018284;28;20029;-77
2021/09/15 10:20:25;;;;;;;16.33;12.38;;;;;;;20.11;91.39;100798.84;5014268;28;20485;-78
2021/09/15 10:22:52;;;;;;;15.70;12.18;;;;;;;20.21;90.66;100794.69;4999460;28;20048;-77
2021/09/15 10:25:20;;;;;;;17.45;12.00;;;;;;;20.16;91.28;100799.00;5022436;28;20033;-78
2021/09/15 10:28:01;;;;;;;18.13;13.35;;;;;;;20.19;90.55;100798.53;5012347;28;20419;-77
2021/09/15 10:30:47;;;;;;;19.77;13.52;;;;;;;20.10;90.76;100808.56;5022329;28;20033;-78
2021/09/15 10:33:37;;;;;;;22.50;15.15;;;;;;;20.04;90.27;100798.91;5031217;28;20045;-77
2021/09/15 10:36:38;;;;;;;25.17;15.93;;;;;;;19.90;90.51;100794.81;5010960;28;20040;-78
2021/09/15 10:39:05;;;;;;;24.48;15.15;;;;;;;19.84;90.83;100794.66;5019414;28;20034;-77
2021/09/15 10:41:33;;;;;;;25.60;16.98;;;;;;;19.88;90.60;100799.50;5013086;28;20041;-77
2021/09/15 10:44:13;;;;;;;23.98;16.25;;;;;;;19.93;90.34;100804.88;5002801;28;20037;-78
2021/09/15 10:46:40;;;;;;;27.38;17.75;;;;;;;19.86;90.70;100809.44;5016746;28;20042;-78
2021/09/15 10:49:23;;;;;;;30.88;19.98;;;;;;;19.78;91.26;100811.31;4998257;28;20458;-78
2021/09/15 10:52:10;;;;;;;28.83;18.30;;;;;;;19.70;91.73;100816.00;5005411;28;20045;-78
2021/09/15 10:54:48;;;;;;;28.35;18.38;;;;;;;19.67;91.61;100805.94;5021221;28;20445;-78
2021/09/15 10:57:28;;;;;;;29.20;19.15;;;;;;;19.66;91.70;100810.38;5001352;28;20029;-78
2021/09/15 10:59:56;;;;;;;33.20;20.17;;;;;;;19.69;92.05;100809.94;5022829;28;20037;-79
2021/09/15 11:02:27;;;;;;;33.58;20.77;;;;;;;19.74;91.67;100804.06;5019408;28;20021;-78
2021/09/15 11:04:54;;;;;;;39.13;23.13;;;;;;;19.81;91.94;100805.59;4998205;28;20042;-78
2021/09/15 11:07:47;;;;;;;32.50;19.90;;;;;;;19.85;91.86;100795.44;5014128;28;20045;-78
2021/09/15 11:10:31;;;;;;;37.88;23.55;;;;;;;19.96;90.89;100800.00;5014445;28;20037;-78
2021/09/15 11:12:59;;;;;;;38.40;23.25;;;;;;;20.07;90.60;100790.59;5014204;28;20037;-78
2021/09/15 11:15:48;;;;;;;34.65;22.33;;;;;;;20.15;90.06;100792.13;5002158;28;20076;-78
2021/09/15 11:18:26;;;;;;;34.95;20.48;;;;;;;20.15;90.13;100802.66;5012912;28;20515;-77
2021/09/15 11:20:57;;;;;;;37.70;22.27;;;;;;;20.16;89.81;100806.91;5032272;28;20063;-78
2021/09/15 11:23:28;;;;;;;31.98;21.02;;;;;;;20.21;89.83;100807.84;5014147;28;20129;-78
2021/09/15 11:25:55;;;;;;;35.80;21.90;;;;;;;20.26;90.43;100806.38;5037275;28;20103;-77
2021/09/15 11:28:25;;;;;;;36.50;22.63;;;;;;;20.40;89.38;100811.28;5021011;28;20041;-77
2021/09/15 11:30:50;;;;;;;38.60;22.85;;;;;;;20.41;89.58;100810.22;5012608;28;20094;-77
2021/09/15 11:33:24;;;;;;;40.90;22.10;;;;;;;20.43;89.33;100804.75;5030664;28;20037;-76